OCN314 EDDM-GCLP
Flight info
| Callsign | OCN314 |
|---|---|
| Flight time | N/A |
| Altitude | 33000 |
| Route | TURBU7S/26L TURBU Y107 TOBSO DCT BAKOR DCT NESTI DCT VOG DCT GEKBA DCT VAMTU DCT KOLON DCT GANGU DCT PADKO DCT DIVKO DCT MAMES DCT BISBA DCT BGR DCT NENDA DCT BCN DCT RODRA DCT PEXOT DCT EBROX/N0461F350 DCT LOTOS DCT TORDU DCT DIKUT DCT SOPET DCT VLC DCT SERRA DCT ASTRO DCT POBOS DCT XEBAR DCT YES DCT MAMIS DCT BAZAS DCT VIBAS DCT MGA DCT BRIKE DCT VJF DCT TAVSI L82 RUNAX UL82 IBALU UN857 TERTO |
| Aircraft | A320/M-SDE3FGHIRWY/LB1 |
Departure
| Time | 2026-05-05 10:27 |
|---|---|
| Airport | Munich Airport (EDDM) |
Arrival
| Time | N/A |
|---|---|
| Airport | Gran Canaria Airport (GCLP) |
| Time | Latitude | Longitude | Altitude | Speed | Heading |
|---|---|---|---|---|---|
| 2026-05-05 09:53 | 48.35248 | 11.80473 | 1486 ft | 0 kts | 353° |
| 2026-05-05 10:17 | 48.35242 | 11.80474 | 1485 ft | 4 kts | 353° |
| 2026-05-05 10:18 | 48.35215 | 11.80479 | 1485 ft | 4 kts | 353° |
| 2026-05-05 10:18 | 48.35188 | 11.80483 | 1485 ft | 4 kts | 353° |
| 2026-05-05 10:18 | 48.35163 | 11.80488 | 1485 ft | 2 kts | 353° |
| 2026-05-05 10:18 | 48.35144 | 11.80494 | 1485 ft | 4 kts | 303° |
| 2026-05-05 10:19 | 48.35141 | 11.80526 | 1485 ft | 4 kts | 263° |
| 2026-05-05 10:19 | 48.35142 | 11.80544 | 1485 ft | 0 kts | 263° |
| 2026-05-05 10:21 | 48.35140 | 11.80517 | 1485 ft | 9 kts | 263° |
| 2026-05-05 10:21 | 48.35130 | 11.80383 | 1485 ft | 14 kts | 263° |
| 2026-05-05 10:22 | 48.35112 | 11.80235 | 1485 ft | 15 kts | 263° |
| 2026-05-05 10:22 | 48.35100 | 11.80080 | 1485 ft | 15 kts | 263° |
| 2026-05-05 10:22 | 48.35088 | 11.79920 | 1485 ft | 16 kts | 263° |
| 2026-05-05 10:22 | 48.35076 | 11.79754 | 1485 ft | 16 kts | 263° |
| 2026-05-05 10:23 | 48.35001 | 11.79668 | 1485 ft | 16 kts | 173° |
| 2026-05-05 10:23 | 48.34892 | 11.79687 | 1485 ft | 16 kts | 173° |
| 2026-05-05 10:23 | 48.34781 | 11.79707 | 1485 ft | 16 kts | 173° |
| 2026-05-05 10:23 | 48.34701 | 11.79791 | 1485 ft | 15 kts | 93° |
| 2026-05-05 10:24 | 48.34712 | 11.79946 | 1485 ft | 14 kts | 83° |
| 2026-05-05 10:24 | 48.34723 | 11.80078 | 1485 ft | 12 kts | 82° |
| 2026-05-05 10:24 | 48.34748 | 11.80177 | 1485 ft | 9 kts | 87° |
| 2026-05-05 10:24 | 48.34709 | 11.80244 | 1485 ft | 8 kts | 162° |
| 2026-05-05 10:25 | 48.34662 | 11.80255 | 1485 ft | 6 kts | 173° |
| 2026-05-05 10:25 | 48.34600 | 11.80265 | 1485 ft | 12 kts | 173° |
| 2026-05-05 10:25 | 48.34521 | 11.80279 | 1485 ft | 11 kts | 173° |
| 2026-05-05 10:25 | 48.34465 | 11.80253 | 1485 ft | 8 kts | 253° |
| 2026-05-05 10:26 | 48.34454 | 11.80107 | 1485 ft | 35 kts | 263° |
| 2026-05-05 10:26 | 48.34397 | 11.79382 | 1485 ft | 101 kts | 264° |
| 2026-05-05 10:26 | 48.34297 | 11.78063 | 1485 ft | 151 kts | 263° |
| 2026-05-05 10:26 | 48.34148 | 11.76293 | 1592 ft | 184 kts | 262° |
| 2026-05-05 10:27 | 48.33994 | 11.74378 | 2251 ft | 186 kts | 263° |
| 2026-05-05 10:27 | 48.33797 | 11.72435 | 2868 ft | 193 kts | 250° |
| 2026-05-05 10:27 | 48.32929 | 11.70841 | 3033 ft | 212 kts | 206° |
| 2026-05-05 10:27 | 48.31466 | 11.70325 | 3379 ft | 221 kts | 184° |
| 2026-05-05 10:28 | 48.29912 | 11.70309 | 3879 ft | 225 kts | 176° |
| 2026-05-05 10:28 | 48.28407 | 11.70939 | 4476 ft | 229 kts | 151° |
| 2026-05-05 10:28 | 48.27063 | 11.72381 | 4845 ft | 247 kts | 143° |
| 2026-05-05 10:28 | 48.25629 | 11.73952 | 5184 ft | 266 kts | 145° |
| 2026-05-05 10:29 | 48.24075 | 11.75567 | 5701 ft | 275 kts | 146° |
| 2026-05-05 10:29 | 48.22478 | 11.77192 | 6373 ft | 280 kts | 146° |
| 2026-05-05 10:29 | 48.20852 | 11.78833 | 7042 ft | 283 kts | 147° |
| 2026-05-05 10:29 | 48.19210 | 11.80483 | 7712 ft | 286 kts | 147° |
| 2026-05-05 10:30 | 48.17464 | 11.81936 | 8334 ft | 289 kts | 159° |
| 2026-05-05 10:30 | 48.15550 | 11.82906 | 8950 ft | 292 kts | 162° |
| 2026-05-05 10:30 | 48.13608 | 11.83862 | 9544 ft | 295 kts | 162° |
| 2026-05-05 10:30 | 48.11648 | 11.84833 | 10117 ft | 298 kts | 162° |
| 2026-05-05 10:31 | 48.09622 | 11.85842 | 10309 ft | 316 kts | 162° |
| 2026-05-05 10:31 | 48.07475 | 11.86910 | 10440 ft | 334 kts | 162° |
| 2026-05-05 10:31 | 48.05243 | 11.88015 | 10565 ft | 351 kts | 162° |
| 2026-05-05 10:31 | 48.02876 | 11.89186 | 10693 ft | 366 kts | 162° |
| 2026-05-05 10:32 | 48.00420 | 11.90404 | 10887 ft | 377 kts | 162° |
| 2026-05-05 10:32 | 47.97917 | 11.91648 | 11275 ft | 381 kts | 162° |
| 2026-05-05 10:32 | 47.95386 | 11.92900 | 11707 ft | 385 kts | 162° |
| 2026-05-05 10:32 | 47.92834 | 11.94126 | 12125 ft | 387 kts | 165° |
| 2026-05-05 10:33 | 47.90175 | 11.94796 | 12521 ft | 389 kts | 176° |
| 2026-05-05 10:33 | 47.87454 | 11.94804 | 12911 ft | 392 kts | 181° |
| 2026-05-05 10:33 | 47.84723 | 11.94739 | 13290 ft | 394 kts | 181° |
| 2026-05-05 10:33 | 47.81970 | 11.94683 | 13645 ft | 397 kts | 181° |
| 2026-05-05 10:34 | 47.79204 | 11.94633 | 13984 ft | 399 kts | 181° |
| 2026-05-05 10:34 | 47.76419 | 11.94584 | 14312 ft | 401 kts | 181° |
| 2026-05-05 10:34 | 47.73619 | 11.94533 | 14637 ft | 403 kts | 181° |
| 2026-05-05 10:34 | 47.70801 | 11.94483 | 14943 ft | 406 kts | 181° |
| 2026-05-05 10:35 | 47.67974 | 11.94432 | 15235 ft | 408 kts | 181° |
| 2026-05-05 10:35 | 47.65132 | 11.94385 | 15508 ft | 410 kts | 181° |
| 2026-05-05 10:35 | 47.63241 | 11.94354 | 15690 ft | 411 kts | 181° |
| 2026-05-05 10:35 | 47.60378 | 11.94306 | 15953 ft | 413 kts | 181° |
| 2026-05-05 10:36 | 47.57499 | 11.94258 | 16206 ft | 414 kts | 181° |
| 2026-05-05 10:36 | 47.54611 | 11.94210 | 16446 ft | 416 kts | 181° |
| 2026-05-05 10:36 | 47.51712 | 11.94160 | 16668 ft | 418 kts | 181° |
| 2026-05-05 10:36 | 47.47852 | 11.94092 | 16955 ft | 420 kts | 181° |
| 2026-05-05 10:37 | 47.45875 | 11.94057 | 17099 ft | 421 kts | 181° |
| 2026-05-05 10:37 | 47.42943 | 11.93944 | 17290 ft | 422 kts | 185° |
| 2026-05-05 10:37 | 47.40025 | 11.93393 | 17486 ft | 424 kts | 188° |
| 2026-05-05 10:37 | 47.37099 | 11.92800 | 17676 ft | 425 kts | 188° |
| 2026-05-05 10:38 | 47.34163 | 11.92206 | 17858 ft | 426 kts | 188° |
| 2026-05-05 10:38 | 47.31224 | 11.91616 | 18037 ft | 428 kts | 188° |
| 2026-05-05 10:38 | 47.28265 | 11.91027 | 18206 ft | 429 kts | 188° |
| 2026-05-05 10:38 | 47.25302 | 11.90441 | 18369 ft | 430 kts | 188° |
| 2026-05-05 10:39 | 47.22369 | 11.89866 | 18528 ft | 432 kts | 188° |
| 2026-05-05 10:39 | 47.19390 | 11.89282 | 18678 ft | 433 kts | 188° |
| 2026-05-05 10:39 | 47.16402 | 11.88695 | 18827 ft | 434 kts | 188° |
| 2026-05-05 10:39 | 47.13369 | 11.88095 | 18972 ft | 435 kts | 188° |
| 2026-05-05 10:40 | 47.10368 | 11.87500 | 19112 ft | 436 kts | 188° |
| 2026-05-05 10:40 | 47.07549 | 11.86943 | 19235 ft | 437 kts | 188° |
| 2026-05-05 10:40 | 47.04578 | 11.86352 | 19368 ft | 437 kts | 188° |
| 2026-05-05 10:40 | 47.01521 | 11.85734 | 19601 ft | 437 kts | 189° |
| 2026-05-05 10:41 | 46.98610 | 11.84993 | 20533 ft | 424 kts | 192° |
| 2026-05-05 10:41 | 46.95743 | 11.84125 | 21152 ft | 420 kts | 193° |
| 2026-05-05 10:41 | 46.92894 | 11.83168 | 21553 ft | 421 kts | 194° |
| 2026-05-05 10:41 | 46.90040 | 11.82179 | 21908 ft | 423 kts | 194° |
| 2026-05-05 10:42 | 46.84273 | 11.80231 | 22537 ft | 428 kts | 193° |
| 2026-05-05 10:42 | 46.81354 | 11.79285 | 22837 ft | 430 kts | 193° |
| 2026-05-05 10:42 | 46.78422 | 11.78358 | 23125 ft | 433 kts | 193° |
| 2026-05-05 10:43 | 46.75468 | 11.77436 | 23418 ft | 435 kts | 193° |
| 2026-05-05 10:43 | 46.72506 | 11.76514 | 23712 ft | 437 kts | 193° |
| 2026-05-05 10:43 | 46.69525 | 11.75581 | 23975 ft | 439 kts | 193° |
| 2026-05-05 10:43 | 46.66536 | 11.74636 | 24247 ft | 441 kts | 194° |
| 2026-05-05 10:44 | 46.63610 | 11.73287 | 24510 ft | 442 kts | 204° |
| 2026-05-05 10:44 | 46.60883 | 11.71233 | 24769 ft | 443 kts | 213° |
| 2026-05-05 10:44 | 46.58434 | 11.68521 | 25069 ft | 442 kts | 223° |
| 2026-05-05 10:44 | 46.56309 | 11.65277 | 25317 ft | 444 kts | 229° |
| 2026-05-05 10:45 | 46.54271 | 11.61901 | 25572 ft | 445 kts | 229° |
| 2026-05-05 10:45 | 46.52222 | 11.58521 | 25830 ft | 447 kts | 229° |
| 2026-05-05 10:45 | 46.50158 | 11.55135 | 26079 ft | 448 kts | 229° |
| 2026-05-05 10:45 | 46.48094 | 11.51750 | 26338 ft | 449 kts | 229° |
| 2026-05-05 10:46 | 46.46024 | 11.48352 | 26604 ft | 450 kts | 229° |
| 2026-05-05 10:46 | 46.43951 | 11.44953 | 26827 ft | 451 kts | 229° |
| 2026-05-05 10:46 | 46.41869 | 11.41545 | 27060 ft | 452 kts | 229° |
| 2026-05-05 10:46 | 46.39813 | 11.38177 | 27301 ft | 452 kts | 229° |
| 2026-05-05 10:47 | 46.37728 | 11.34760 | 27516 ft | 453 kts | 230° |
| 2026-05-05 10:47 | 46.35638 | 11.31340 | 27771 ft | 453 kts | 229° |
| 2026-05-05 10:47 | 46.33548 | 11.27933 | 28108 ft | 452 kts | 229° |
| 2026-05-05 10:47 | 46.31463 | 11.24545 | 28420 ft | 450 kts | 229° |
| 2026-05-05 10:48 | 46.29382 | 11.21170 | 28725 ft | 449 kts | 229° |
| 2026-05-05 10:48 | 46.27308 | 11.17806 | 28998 ft | 448 kts | 229° |
| 2026-05-05 10:48 | 46.25240 | 11.14453 | 29292 ft | 446 kts | 230° |
| 2026-05-05 10:48 | 46.23179 | 11.11113 | 29592 ft | 445 kts | 230° |
| 2026-05-05 10:49 | 46.21123 | 11.07790 | 29889 ft | 443 kts | 230° |
| 2026-05-05 10:49 | 46.19073 | 11.04476 | 30190 ft | 442 kts | 230° |
| 2026-05-05 10:49 | 46.17028 | 11.01174 | 30481 ft | 440 kts | 230° |
| 2026-05-05 10:49 | 46.14990 | 10.97885 | 30749 ft | 439 kts | 229° |
| 2026-05-05 10:50 | 46.12952 | 10.94601 | 30985 ft | 439 kts | 229° |
| 2026-05-05 10:50 | 46.10916 | 10.91322 | 31189 ft | 439 kts | 229° |
| 2026-05-05 10:50 | 46.08879 | 10.88052 | 31429 ft | 438 kts | 229° |
| 2026-05-05 10:50 | 46.06840 | 10.84786 | 31624 ft | 438 kts | 229° |
| 2026-05-05 10:51 | 46.04808 | 10.81532 | 31878 ft | 437 kts | 229° |
| 2026-05-05 10:51 | 46.02779 | 10.78282 | 32133 ft | 436 kts | 229° |
| 2026-05-05 10:51 | 46.00750 | 10.75035 | 32345 ft | 436 kts | 229° |
| 2026-05-05 10:51 | 45.98725 | 10.71801 | 32562 ft | 435 kts | 229° |
| 2026-05-05 10:52 | 45.96694 | 10.68568 | 32803 ft | 435 kts | 229° |
| 2026-05-05 10:52 | 45.94668 | 10.65347 | 33007 ft | 434 kts | 229° |
| 2026-05-05 10:52 | 45.92646 | 10.62132 | 33069 ft | 431 kts | 229° |
| 2026-05-05 10:53 | 45.88671 | 10.55811 | 33071 ft | 424 kts | 229° |
| 2026-05-05 10:53 | 45.84718 | 10.49552 | 33072 ft | 423 kts | 229° |
| 2026-05-05 10:54 | 45.80769 | 10.43311 | 33073 ft | 423 kts | 229° |
| 2026-05-05 10:54 | 45.76976 | 10.36951 | 33071 ft | 422 kts | 232° |
| 2026-05-05 10:55 | 45.73351 | 10.30343 | 33062 ft | 422 kts | 233° |
| 2026-05-05 10:55 | 45.69728 | 10.23746 | 33063 ft | 422 kts | 232° |
| 2026-05-05 10:56 | 45.66048 | 10.17214 | 33076 ft | 422 kts | 231° |
| 2026-05-05 10:56 | 45.62343 | 10.10711 | 33104 ft | 421 kts | 230° |
| 2026-05-05 10:57 | 45.58686 | 10.04301 | 33020 ft | 412 kts | 229° |
| 2026-05-05 10:57 | 45.55073 | 9.97960 | 33003 ft | 412 kts | 229° |
| 2026-05-05 10:58 | 45.51457 | 9.91627 | 32998 ft | 412 kts | 229° |
| 2026-05-05 10:58 | 45.47838 | 9.85299 | 32999 ft | 411 kts | 229° |
| 2026-05-05 10:59 | 45.44216 | 9.78990 | 32996 ft | 411 kts | 229° |
| 2026-05-05 10:59 | 45.40618 | 9.72727 | 32979 ft | 411 kts | 230° |
| 2026-05-05 11:00 | 45.36996 | 9.66432 | 32987 ft | 411 kts | 230° |
| 2026-05-05 11:00 | 45.33365 | 9.60149 | 32979 ft | 411 kts | 230° |
| 2026-05-05 11:01 | 45.29734 | 9.53880 | 32984 ft | 411 kts | 230° |
| 2026-05-05 11:01 | 45.26099 | 9.47620 | 32982 ft | 411 kts | 230° |
| 2026-05-05 11:02 | 45.22464 | 9.41365 | 32993 ft | 411 kts | 230° |
| 2026-05-05 11:02 | 45.18831 | 9.35115 | 32986 ft | 410 kts | 230° |
| 2026-05-05 11:03 | 45.15197 | 9.28885 | 33000 ft | 410 kts | 230° |
| 2026-05-05 11:03 | 45.11557 | 9.22675 | 33000 ft | 410 kts | 230° |
| 2026-05-05 11:04 | 45.07916 | 9.16480 | 33000 ft | 410 kts | 230° |
| 2026-05-05 11:04 | 45.04269 | 9.10281 | 33002 ft | 410 kts | 230° |
| 2026-05-05 11:05 | 45.00650 | 9.04129 | 33004 ft | 409 kts | 230° |
| 2026-05-05 11:05 | 44.97006 | 8.97954 | 33002 ft | 409 kts | 230° |
| 2026-05-05 11:06 | 44.93403 | 8.91753 | 33001 ft | 408 kts | 231° |
| 2026-05-05 11:06 | 44.89856 | 8.85504 | 32999 ft | 408 kts | 231° |
| 2026-05-05 11:07 | 44.86305 | 8.79270 | 33001 ft | 407 kts | 231° |
| 2026-05-05 11:07 | 44.82739 | 8.73072 | 32999 ft | 406 kts | 231° |
| 2026-05-05 11:08 | 44.79173 | 8.66904 | 32993 ft | 406 kts | 231° |
| 2026-05-05 11:08 | 44.75613 | 8.60745 | 32997 ft | 406 kts | 231° |
| 2026-05-05 11:09 | 44.72054 | 8.54579 | 33000 ft | 405 kts | 231° |
| 2026-05-05 11:09 | 44.68493 | 8.48438 | 32998 ft | 405 kts | 231° |
| 2026-05-05 11:10 | 44.64931 | 8.42311 | 33002 ft | 405 kts | 232° |
| 2026-05-05 11:10 | 44.61367 | 8.36191 | 33010 ft | 404 kts | 232° |
| 2026-05-05 11:11 | 44.57812 | 8.30091 | 33006 ft | 403 kts | 232° |
| 2026-05-05 11:11 | 44.54287 | 8.24063 | 33004 ft | 402 kts | 232° |
| 2026-05-05 11:12 | 44.50742 | 8.18024 | 33002 ft | 401 kts | 232° |
| 2026-05-05 11:12 | 44.47206 | 8.12001 | 33002 ft | 400 kts | 232° |
| 2026-05-05 11:13 | 44.43667 | 8.05987 | 33001 ft | 400 kts | 232° |
| 2026-05-05 11:13 | 44.40125 | 7.99992 | 33003 ft | 399 kts | 232° |
| 2026-05-05 11:14 | 44.36590 | 7.94013 | 33001 ft | 398 kts | 232° |
| 2026-05-05 11:14 | 44.33060 | 7.88052 | 33000 ft | 398 kts | 232° |
| 2026-05-05 11:15 | 44.29530 | 7.82100 | 32997 ft | 398 kts | 232° |
| 2026-05-05 11:15 | 44.25816 | 7.76377 | 32998 ft | 400 kts | 224° |
| 2026-05-05 11:16 | 44.21643 | 7.71235 | 32986 ft | 400 kts | 224° |
| 2026-05-05 11:16 | 44.17490 | 7.66146 | 32990 ft | 400 kts | 224° |
| 2026-05-05 11:17 | 44.13472 | 7.60817 | 32979 ft | 397 kts | 231° |
| 2026-05-05 11:17 | 44.09854 | 7.54991 | 32982 ft | 397 kts | 231° |
| 2026-05-05 11:18 | 44.06222 | 7.49195 | 32978 ft | 398 kts | 231° |
| 2026-05-05 11:18 | 44.02592 | 7.43403 | 32981 ft | 397 kts | 231° |
| 2026-05-05 11:19 | 43.98964 | 7.37621 | 32990 ft | 397 kts | 231° |
| 2026-05-05 11:19 | 43.95332 | 7.31846 | 33000 ft | 396 kts | 231° |
| 2026-05-05 11:20 | 43.91712 | 7.26097 | 32997 ft | 396 kts | 231° |
| 2026-05-05 11:20 | 43.88097 | 7.20368 | 32976 ft | 394 kts | 231° |
| 2026-05-05 11:21 | 43.84477 | 7.14655 | 32981 ft | 394 kts | 230° |
| 2026-05-05 11:21 | 43.80868 | 7.08967 | 32985 ft | 393 kts | 230° |
| 2026-05-05 11:22 | 43.77262 | 7.03295 | 32986 ft | 392 kts | 230° |
| 2026-05-05 11:22 | 43.73661 | 6.97633 | 32986 ft | 391 kts | 232° |
| 2026-05-05 11:23 | 43.70967 | 6.91176 | 32973 ft | 389 kts | 247° |
| 2026-05-05 11:23 | 43.68956 | 6.84279 | 32972 ft | 389 kts | 247° |
| 2026-05-05 11:24 | 43.66909 | 6.77352 | 32971 ft | 390 kts | 246° |
| 2026-05-05 11:24 | 43.64860 | 6.70432 | 32970 ft | 389 kts | 246° |
| 2026-05-05 11:25 | 43.62810 | 6.63524 | 32966 ft | 389 kts | 246° |
| 2026-05-05 11:25 | 43.60757 | 6.56623 | 32963 ft | 388 kts | 246° |
| 2026-05-05 11:26 | 43.58709 | 6.49732 | 32959 ft | 388 kts | 246° |
| 2026-05-05 11:26 | 43.56652 | 6.42858 | 32962 ft | 388 kts | 246° |
| 2026-05-05 11:27 | 43.54595 | 6.35993 | 32959 ft | 387 kts | 246° |
| 2026-05-05 11:27 | 43.52536 | 6.29131 | 32956 ft | 388 kts | 246° |
| 2026-05-05 11:28 | 43.50468 | 6.22273 | 32956 ft | 388 kts | 246° |
| 2026-05-05 11:28 | 43.48406 | 6.15462 | 32955 ft | 388 kts | 245° |
| 2026-05-05 11:29 | 43.46318 | 6.08573 | 32960 ft | 387 kts | 245° |
| 2026-05-05 11:29 | 43.44265 | 6.01776 | 32958 ft | 387 kts | 245° |
| 2026-05-05 11:30 | 43.42190 | 5.94953 | 32962 ft | 386 kts | 245° |
| 2026-05-05 11:30 | 43.40113 | 5.88142 | 32961 ft | 386 kts | 245° |
| 2026-05-05 11:31 | 43.38364 | 5.82444 | 32962 ft | 386 kts | 245° |
| 2026-05-05 11:31 | 43.36288 | 5.75694 | 32968 ft | 386 kts | 245° |
| 2026-05-05 11:32 | 43.34198 | 5.68894 | 32964 ft | 386 kts | 245° |
| 2026-05-05 11:32 | 43.32105 | 5.62097 | 32974 ft | 386 kts | 245° |
| 2026-05-05 11:33 | 43.30355 | 5.56423 | 32974 ft | 385 kts | 245° |
| 2026-05-05 11:33 | 43.28411 | 5.50149 | 32968 ft | 385 kts | 245° |
| 2026-05-05 11:34 | 43.26308 | 5.43390 | 32973 ft | 385 kts | 245° |
| 2026-05-05 11:34 | 43.24204 | 5.36638 | 32977 ft | 385 kts | 245° |
| 2026-05-05 11:35 | 43.22100 | 5.29896 | 32966 ft | 384 kts | 245° |
| 2026-05-05 11:35 | 43.19992 | 5.23174 | 32966 ft | 384 kts | 245° |
| 2026-05-05 11:36 | 43.17883 | 5.16447 | 32965 ft | 384 kts | 245° |
| 2026-05-05 11:36 | 43.15771 | 5.09732 | 32966 ft | 384 kts | 245° |
| 2026-05-05 11:37 | 43.13653 | 5.03017 | 32973 ft | 384 kts | 245° |
| 2026-05-05 11:37 | 43.11551 | 4.96354 | 32970 ft | 384 kts | 245° |
| 2026-05-05 11:38 | 43.09430 | 4.89653 | 32963 ft | 384 kts | 244° |
| 2026-05-05 11:38 | 43.07297 | 4.82964 | 32963 ft | 383 kts | 244° |
| 2026-05-05 11:39 | 43.04357 | 4.76964 | 32965 ft | 382 kts | 226° |
| 2026-05-05 11:39 | 43.00125 | 4.72561 | 32960 ft | 384 kts | 217° |
| 2026-05-05 11:40 | 42.95707 | 4.68472 | 32955 ft | 384 kts | 217° |
| 2026-05-05 11:40 | 42.91290 | 4.64379 | 32951 ft | 384 kts | 217° |
| 2026-05-05 11:41 | 42.86870 | 4.60283 | 32950 ft | 384 kts | 217° |
| 2026-05-05 11:41 | 42.82452 | 4.56198 | 32950 ft | 384 kts | 217° |
| 2026-05-05 11:42 | 42.78034 | 4.52121 | 32945 ft | 384 kts | 217° |
| 2026-05-05 11:42 | 42.73612 | 4.48044 | 32940 ft | 384 kts | 217° |
| 2026-05-05 11:43 | 42.69184 | 4.43976 | 32939 ft | 384 kts | 217° |
| 2026-05-05 11:43 | 42.64757 | 4.39907 | 32939 ft | 384 kts | 217° |
| 2026-05-05 11:44 | 42.60320 | 4.35839 | 32936 ft | 385 kts | 217° |
| 2026-05-05 11:44 | 42.55907 | 4.31807 | 32938 ft | 385 kts | 217° |
| 2026-05-05 11:45 | 42.51437 | 4.27722 | 32938 ft | 385 kts | 217° |
| 2026-05-05 11:45 | 42.47028 | 4.23696 | 32938 ft | 385 kts | 217° |
| 2026-05-05 11:46 | 42.42580 | 4.19648 | 32937 ft | 385 kts | 217° |
| 2026-05-05 11:46 | 42.38133 | 4.15607 | 32936 ft | 385 kts | 217° |
| 2026-05-05 11:47 | 42.33678 | 4.11572 | 32936 ft | 385 kts | 217° |
| 2026-05-05 11:47 | 42.29226 | 4.07533 | 32930 ft | 386 kts | 217° |
| 2026-05-05 11:48 | 42.22634 | 4.01313 | 32926 ft | 383 kts | 225° |
| 2026-05-05 11:48 | 42.19481 | 3.95607 | 32929 ft | 381 kts | 244° |
| 2026-05-05 11:49 | 42.17348 | 3.89054 | 32930 ft | 382 kts | 245° |
| 2026-05-05 11:49 | 42.15203 | 3.82504 | 32931 ft | 382 kts | 245° |
| 2026-05-05 11:50 | 42.13045 | 3.75956 | 32932 ft | 382 kts | 245° |
| 2026-05-05 11:50 | 42.10885 | 3.69412 | 32936 ft | 382 kts | 245° |
| 2026-05-05 11:51 | 42.08726 | 3.62870 | 32937 ft | 382 kts | 245° |
| 2026-05-05 11:51 | 42.06571 | 3.56337 | 32938 ft | 382 kts | 245° |
| 2026-05-05 11:52 | 42.04427 | 3.49849 | 32938 ft | 382 kts | 245° |
| 2026-05-05 11:52 | 42.02268 | 3.43329 | 32939 ft | 382 kts | 245° |
| 2026-05-05 11:53 | 42.00099 | 3.36816 | 32942 ft | 381 kts | 244° |
| 2026-05-05 11:53 | 41.97924 | 3.30326 | 32939 ft | 381 kts | 245° |
| 2026-05-05 11:54 | 41.95754 | 3.23844 | 32941 ft | 380 kts | 245° |
| 2026-05-05 11:54 | 41.93009 | 3.17821 | 32945 ft | 379 kts | 233° |
| 2026-05-05 11:55 | 41.89800 | 3.12220 | 32942 ft | 378 kts | 233° |
| 2026-05-05 11:55 | 41.86596 | 3.06618 | 32942 ft | 378 kts | 233° |
| 2026-05-05 11:56 | 41.83390 | 3.01029 | 32941 ft | 378 kts | 233° |
| 2026-05-05 11:56 | 41.80178 | 2.95454 | 32941 ft | 378 kts | 233° |
| 2026-05-05 11:57 | 41.76972 | 2.89886 | 32940 ft | 377 kts | 233° |
| 2026-05-05 11:57 | 41.73765 | 2.84330 | 32941 ft | 377 kts | 233° |
| 2026-05-05 11:58 | 41.70556 | 2.78786 | 32940 ft | 376 kts | 233° |
| 2026-05-05 11:58 | 41.67346 | 2.73250 | 32942 ft | 376 kts | 233° |
| 2026-05-05 11:59 | 41.64138 | 2.67728 | 32944 ft | 376 kts | 233° |
| 2026-05-05 11:59 | 41.60931 | 2.62214 | 32942 ft | 376 kts | 233° |
| 2026-05-05 12:00 | 41.57716 | 2.56707 | 32949 ft | 376 kts | 233° |
| 2026-05-05 12:00 | 41.54506 | 2.51210 | 32951 ft | 375 kts | 233° |
| 2026-05-05 12:01 | 41.51298 | 2.45722 | 32952 ft | 375 kts | 233° |
| 2026-05-05 12:01 | 41.48090 | 2.40246 | 32950 ft | 374 kts | 233° |
| 2026-05-05 12:02 | 41.44877 | 2.34781 | 32947 ft | 374 kts | 233° |
| 2026-05-05 12:02 | 41.41664 | 2.29318 | 32945 ft | 374 kts | 233° |
| 2026-05-05 12:03 | 41.38449 | 2.23854 | 32946 ft | 374 kts | 233° |
| 2026-05-05 12:03 | 41.35230 | 2.18405 | 32944 ft | 374 kts | 232° |
| 2026-05-05 12:04 | 41.32003 | 2.12972 | 32942 ft | 374 kts | 232° |
| 2026-05-05 12:04 | 41.28727 | 2.07659 | 32942 ft | 374 kts | 230° |
| 2026-05-05 12:05 | 41.25243 | 2.02522 | 32940 ft | 374 kts | 229° |
| 2026-05-05 12:05 | 41.21719 | 1.97423 | 32939 ft | 374 kts | 229° |
| 2026-05-05 12:06 | 41.18233 | 1.92310 | 32951 ft | 373 kts | 230° |
| 2026-05-05 12:06 | 41.14768 | 1.87198 | 32952 ft | 372 kts | 230° |
| 2026-05-05 12:07 | 41.11308 | 1.82104 | 32955 ft | 371 kts | 230° |
| 2026-05-05 12:07 | 41.07853 | 1.77023 | 32961 ft | 371 kts | 229° |
| 2026-05-05 12:08 | 41.04398 | 1.71957 | 32955 ft | 370 kts | 230° |
| 2026-05-05 12:08 | 41.00953 | 1.66902 | 32957 ft | 370 kts | 230° |
| 2026-05-05 12:09 | 40.97504 | 1.61852 | 32957 ft | 369 kts | 230° |
| 2026-05-05 12:09 | 40.94055 | 1.56814 | 32954 ft | 369 kts | 230° |
| 2026-05-05 12:10 | 40.90604 | 1.51777 | 32956 ft | 369 kts | 230° |
| 2026-05-05 12:10 | 40.87151 | 1.46749 | 32954 ft | 369 kts | 230° |
| 2026-05-05 12:11 | 40.83698 | 1.41739 | 32951 ft | 369 kts | 230° |
| 2026-05-05 12:11 | 40.80243 | 1.36734 | 32951 ft | 368 kts | 230° |
| 2026-05-05 12:12 | 40.76796 | 1.31734 | 32956 ft | 368 kts | 229° |
| 2026-05-05 12:12 | 40.73350 | 1.26756 | 32979 ft | 368 kts | 229° |
| 2026-05-05 12:13 | 40.71619 | 1.24256 | 33166 ft | 369 kts | 229° |
| 2026-05-05 12:13 | 40.69888 | 1.21757 | 33400 ft | 369 kts | 229° |
| 2026-05-05 12:13 | 40.68157 | 1.19261 | 33647 ft | 369 kts | 229° |
| 2026-05-05 12:13 | 40.66430 | 1.16768 | 33913 ft | 367 kts | 229° |
| 2026-05-05 12:14 | 40.64732 | 1.14320 | 34161 ft | 367 kts | 229° |
| 2026-05-05 12:14 | 40.62988 | 1.11813 | 34409 ft | 366 kts | 229° |
| 2026-05-05 12:14 | 40.61288 | 1.09370 | 34610 ft | 367 kts | 229° |
| 2026-05-05 12:14 | 40.59567 | 1.06896 | 34795 ft | 367 kts | 229° |
| 2026-05-05 12:15 | 40.57840 | 1.04420 | 34927 ft | 367 kts | 229° |
| 2026-05-05 12:15 | 40.56112 | 1.01944 | 34942 ft | 368 kts | 229° |
| 2026-05-05 12:15 | 40.52657 | 0.96991 | 34948 ft | 367 kts | 229° |
| 2026-05-05 12:16 | 40.49205 | 0.92055 | 34943 ft | 367 kts | 229° |
| 2026-05-05 12:16 | 40.45746 | 0.87129 | 34942 ft | 367 kts | 229° |
| 2026-05-05 12:17 | 40.42287 | 0.82215 | 34942 ft | 367 kts | 229° |
| 2026-05-05 12:17 | 40.38831 | 0.77296 | 34944 ft | 367 kts | 229° |
| 2026-05-05 12:18 | 40.35369 | 0.72383 | 34948 ft | 367 kts | 229° |
| 2026-05-05 12:18 | 40.31910 | 0.67479 | 34948 ft | 366 kts | 229° |
| 2026-05-05 12:19 | 40.28453 | 0.62580 | 34952 ft | 366 kts | 229° |
| 2026-05-05 12:19 | 40.25578 | 0.58512 | 34951 ft | 366 kts | 229° |
| 2026-05-05 12:20 | 40.21558 | 0.52846 | 34945 ft | 365 kts | 229° |
| 2026-05-05 12:20 | 40.18098 | 0.47985 | 34950 ft | 364 kts | 229° |
| 2026-05-05 12:21 | 40.15208 | 0.43923 | 34948 ft | 364 kts | 229° |
| 2026-05-05 12:21 | 40.11756 | 0.39077 | 34949 ft | 364 kts | 229° |
| 2026-05-05 12:22 | 40.08322 | 0.34268 | 34948 ft | 364 kts | 229° |
| 2026-05-05 12:22 | 40.04859 | 0.29437 | 34948 ft | 364 kts | 229° |
| 2026-05-05 12:23 | 40.01404 | 0.24605 | 34950 ft | 364 kts | 229° |
| 2026-05-05 12:23 | 39.97950 | 0.19774 | 34953 ft | 364 kts | 229° |
| 2026-05-05 12:24 | 39.94490 | 0.14955 | 34948 ft | 364 kts | 229° |
| 2026-05-05 12:24 | 39.91029 | 0.10147 | 34942 ft | 364 kts | 229° |
| 2026-05-05 12:25 | 39.87570 | 0.05339 | 34942 ft | 364 kts | 229° |
| 2026-05-05 12:25 | 39.84116 | 0.00543 | 34948 ft | 363 kts | 229° |
| 2026-05-05 12:26 | 39.80652 | -0.04255 | 34913 ft | 365 kts | 229° |
| 2026-05-05 12:26 | 39.77151 | -0.09091 | 34894 ft | 369 kts | 229° |
| 2026-05-05 12:27 | 39.73614 | -0.13957 | 34895 ft | 372 kts | 229° |
| 2026-05-05 12:27 | 39.70084 | -0.18819 | 34898 ft | 373 kts | 229° |
| 2026-05-05 12:28 | 39.66512 | -0.23733 | 34903 ft | 374 kts | 229° |
| 2026-05-05 12:28 | 39.62936 | -0.28654 | 34909 ft | 375 kts | 229° |
| 2026-05-05 12:29 | 39.59350 | -0.33572 | 34912 ft | 375 kts | 229° |
| 2026-05-05 12:29 | 39.55735 | -0.38520 | 34925 ft | 383 kts | 229° |
| 2026-05-05 12:30 | 39.52045 | -0.43558 | 34925 ft | 387 kts | 229° |
| 2026-05-05 12:30 | 39.48365 | -0.48647 | 34923 ft | 386 kts | 233° |
| 2026-05-05 12:31 | 39.45118 | -0.54177 | 34924 ft | 386 kts | 234° |
| 2026-05-05 12:31 | 39.41874 | -0.59717 | 34925 ft | 387 kts | 234° |
| 2026-05-05 12:32 | 39.38632 | -0.65260 | 34926 ft | 387 kts | 234° |
| 2026-05-05 12:32 | 39.35380 | -0.70800 | 34924 ft | 387 kts | 234° |
| 2026-05-05 12:33 | 39.32137 | -0.76304 | 34927 ft | 387 kts | 234° |
| 2026-05-05 12:33 | 39.28850 | -0.81870 | 34931 ft | 387 kts | 233° |
| 2026-05-05 12:34 | 39.25608 | -0.87359 | 34930 ft | 387 kts | 234° |
| 2026-05-05 12:34 | 39.22343 | -0.92882 | 34935 ft | 387 kts | 233° |
| 2026-05-05 12:35 | 39.19072 | -0.98400 | 34943 ft | 387 kts | 233° |
| 2026-05-05 12:35 | 39.15797 | -1.03912 | 34944 ft | 388 kts | 233° |
| 2026-05-05 12:36 | 39.12514 | -1.09420 | 34948 ft | 388 kts | 233° |
| 2026-05-05 12:36 | 39.09227 | -1.14930 | 34948 ft | 388 kts | 233° |
| 2026-05-05 12:37 | 39.05942 | -1.20443 | 34953 ft | 388 kts | 233° |
| 2026-05-05 12:37 | 39.02649 | -1.25952 | 34954 ft | 389 kts | 233° |